Terminal Aerodrome Forecast
Issued by NWS

Home | Current Version | Previous Version | Text Only | Print | Product List | Glossary Off
Versions: 1 2 3 4 5 6 7 8 9 10 11 12 13 14

000
FTUS43 KGRB 152300
TAFATW
TAF
KATW 152337Z 1600/1624 27005KT P6SM FEW020 SCT050
     FM160200 32003KT P6SM FEW050
      TEMPO 1608/1612 3SM BR
     FM161600 27008G13KT P6SM SCT035=

USA.gov is the U.S. government's official web portal to all federal, state and local government web resources and services.